Time;durP1;ratioP1;P1;durP2;ratioP2;P2;SDS_P1;SDS_P2;PMS_P1;PMS_P2;Temp;Humidity;BMP_temperature;BMP_pressure;BME280_temperature;BME280_humidity;BME280_pressure;Samples;Min_cycle;Max_cycle;Signal;HPM_P1;HPM_P2
2023/12/05 00:01:29;;;;;;;10.93;6.20;;;;;;;;;;5009288;28;20029;-76
2023/12/05 00:03:54;;;;;;;10.40;7.43;;;;;;;;;;4992620;28;20609;-75
2023/12/05 00:06:19;;;;;;;9.93;6.88;;;;;;;;;;5007358;28;20054;-76
2023/12/05 00:08:45;;;;;;;14.18;7.07;;;;;;;;;;5004755;28;20493;-76
2023/12/05 00:11:10;;;;;;;8.40;6.00;;;;;;;;;;5011101;28;20117;-75
2023/12/05 00:13:35;;;;;;;10.13;4.93;;;;;;;;;;5030876;23;20229;-76
2023/12/05 00:16:01;;;;;;;7.78;6.43;;;;;;;;;;5017603;28;20040;-77
2023/12/05 00:18:26;;;;;;;31.42;7.75;;;;;;;;;;5013658;28;20044;-76
2023/12/05 00:20:52;;;;;;;55.72;8.68;;;;;;;;;;5015013;28;20104;-76
2023/12/05 00:23:17;;;;;;;11.48;7.35;;;;;;;;;;5020803;28;20046;-76
2023/12/05 00:25:43;;;;;;;228.68;14.60;;;;;;;;;;5024010;28;20149;-76
2023/12/05 00:28:08;;;;;;;33.75;7.60;;;;;;;;;;5024749;28;20041;-77
2023/12/05 00:30:34;;;;;;;16.35;7.18;;;;;;;;;;5020586;28;20112;-77
2023/12/05 00:32:59;;;;;;;499.30;35.22;;;;;;;;;;5019417;28;20121;-77
2023/12/05 00:35:24;;;;;;;344.02;22.92;;;;;;;;;;5017386;28;20026;-77
2023/12/05 00:37:50;;;;;;;162.77;14.00;;;;;;;;;;5016202;28;20084;-76
2023/12/05 00:40:15;;;;;;;331.02;22.45;;;;;;;;;;5015564;28;20044;-76
2023/12/05 00:42:40;;;;;;;173.27;14.95;;;;;;;;;;5012079;28;20410;-77
2023/12/05 00:45:06;;;;;;;9.82;5.47;;;;;;;;;;5016821;28;20025;-77
2023/12/05 00:47:31;;;;;;;16.15;7.95;;;;;;;;;;5015560;28;20032;-76
2023/12/05 00:49:57;;;;;;;16.58;6.90;;;;;;;;;;5024696;28;20459;-77
2023/12/05 00:52:22;;;;;;;9.88;6.18;;;;;;;;;;5022320;28;20030;-78
2023/12/05 00:54:47;;;;;;;8.68;6.05;;;;;;;;;;5014784;28;20026;-75
2023/12/05 00:57:12;;;;;;;10.93;6.43;;;;;;;;;;5023009;28;20156;-75
2023/12/05 00:59:38;;;;;;;8.60;5.97;;;;;;;;;;5025076;28;20103;-76
2023/12/05 01:02:03;;;;;;;9.98;6.72;;;;;;;;;;5024699;28;20026;-76
2023/12/05 01:04:29;;;;;;;10.73;5.47;;;;;;;;;;5014000;28;20030;-75
2023/12/05 01:06:54;;;;;;;10.73;7.20;;;;;;;;;;5014143;28;20044;-77
2023/12/05 01:09:19;;;;;;;7.82;5.50;;;;;;;;;;5020799;28;20029;-77
2023/12/05 01:11:45;;;;;;;8.60;6.65;;;;;;;;;;5021802;28;20021;-77
2023/12/05 01:14:10;;;;;;;9.80;6.22;;;;;;;;;;5024234;28;20378;-76
2023/12/05 01:16:43;;;;;;;8.05;5.63;;;;;;;;;;5015698;28;20076;-76
2023/12/05 01:19:09;;;;;;;9.73;6.05;;;;;;;;;;5019178;28;20132;-77
2023/12/05 01:21:35;;;;;;;7.85;5.43;;;;;;;;;;5012353;28;20549;-75
2023/12/05 01:24:00;;;;;;;13.95;9.70;;;;;;;;;;5018740;28;20021;-76
2023/12/05 01:26:26;;;;;;;9.68;6.07;;;;;;;;;;5025502;28;20038;-78
2023/12/05 01:28:51;;;;;;;10.80;7.05;;;;;;;;;;5017053;28;20059;-75
2023/12/05 01:31:16;;;;;;;13.75;8.00;;;;;;;;;;5015929;28;20034;-77
2023/12/05 01:33:41;;;;;;;10.07;7.43;;;;;;;;;;5015033;28;20037;-77
2023/12/05 01:36:10;;;;;;;12.50;7.03;;;;;;;;;;5028221;28;20025;-77
2023/12/05 01:38:35;;;;;;;7.78;6.05;;;;;;;;;;5028664;28;20535;-76
2023/12/05 01:41:01;;;;;;;9.30;6.15;;;;;;;;;;5029078;28;20144;-76
2023/12/05 01:43:26;;;;;;;12.68;6.57;;;;;;;;;;5021193;28;20444;-76
2023/12/05 01:45:52;;;;;;;10.20;6.00;;;;;;;;;;5011853;28;20390;-75
2023/12/05 01:48:18;;;;;;;6.97;4.97;;;;;;;;;;5000776;28;20025;-77
2023/12/05 01:50:44;;;;;;;6.20;4.53;;;;;;;;;;5020203;28;20053;-76
2023/12/05 01:53:11;;;;;;;11.30;6.20;;;;;;;;;;5021889;28;20030;-76
2023/12/05 01:55:37;;;;;;;8.13;5.50;;;;;;;;;;5031343;28;20037;-76
2023/12/05 01:58:04;;;;;;;7.38;4.93;;;;;;;;;;5031383;28;20033;-76
2023/12/05 02:00:29;;;;;;;9.10;5.20;;;;;;;;;;5012362;28;20029;-77
2023/12/05 02:02:56;;;;;;;7.25;5.30;;;;;;;;;;5018116;28;20085;-76
2023/12/05 02:05:21;;;;;;;7.25;5.40;;;;;;;;;;5002222;28;20145;-77
2023/12/05 02:07:47;;;;;;;7.80;5.60;;;;;;;;;;5022651;28;20049;-76
2023/12/05 02:10:12;;;;;;;7.03;4.85;;;;;;;;;;5019587;28;20030;-76
2023/12/05 02:12:40;;;;;;;9.98;6.28;;;;;;;;;;5011475;28;20029;-76
2023/12/05 02:15:07;;;;;;;6.93;5.28;;;;;;;;;;5026205;28;20038;-77
2023/12/05 02:17:41;;;;;;;8.82;5.78;;;;;;;;;;5019536;28;20014;-75
2023/12/05 02:20:18;;;;;;;7.60;5.10;;;;;;;;;;5013196;28;20034;-76
2023/12/05 02:22:43;;;;;;;11.85;6.25;;;;;;;;;;5017430;28;20421;-77
2023/12/05 02:25:31;;;;;;;11.82;7.03;;;;;;;;;;5003657;28;20038;-76
2023/12/05 02:27:59;;;;;;;14.00;7.50;;;;;;;;;;5018090;28;20179;-76
2023/12/05 02:30:25;;;;;;;12.85;7.28;;;;;;;;;;5019979;28;20041;-76
2023/12/05 02:32:50;;;;;;;13.13;7.15;;;;;;;;;;5019529;28;20108;-76
2023/12/05 02:35:16;;;;;;;9.38;6.32;;;;;;;;;;5014993;28;20042;-76
2023/12/05 02:37:59;;;;;;;12.68;8.10;;;;;;;;;;5023090;28;20025;-76
2023/12/05 02:40:34;;;;;;;17.05;8.27;;;;;;;;;;5026117;28;20516;-75
2023/12/05 02:43:04;;;;;;;10.95;8.20;;;;;;;;;;5007262;28;20042;-77
2023/12/05 02:45:31;;;;;;;10.77;6.35;;;;;;;;;;5017041;28;20109;-75
2023/12/05 02:47:58;;;;;;;9.55;5.68;;;;;;;;;;5021597;28;20061;-77
2023/12/05 02:50:24;;;;;;;7.47;5.40;;;;;;;;;;5018792;28;20101;-76
2023/12/05 02:52:49;;;;;;;8.98;6.00;;;;;;;;;;5023081;28;20041;-76
2023/12/05 02:55:14;;;;;;;6.70;4.97;;;;;;;;;;5014018;28;20058;-76
2023/12/05 02:57:40;;;;;;;9.50;5.82;;;;;;;;;;5023466;28;20034;-76
2023/12/05 03:00:06;;;;;;;10.82;6.80;;;;;;;;;;5005816;28;20041;-77
2023/12/05 03:02:31;;;;;;;15.25;8.90;;;;;;;;;;5025348;28;20040;-76
2023/12/05 03:04:57;;;;;;;7.90;4.95;;;;;;;;;;5013136;28;20045;-76
2023/12/05 03:07:22;;;;;;;8.02;5.47;;;;;;;;;;5018858;28;20068;-76
2023/12/05 03:09:47;;;;;;;6.95;4.88;;;;;;;;;;5024462;28;20034;-77
2023/12/05 03:12:13;;;;;;;5.30;4.15;;;;;;;;;;5006121;28;20017;-76
2023/12/05 03:14:38;;;;;;;8.20;4.90;;;;;;;;;;5028328;28;20405;-77
2023/12/05 03:17:03;;;;;;;6.40;4.50;;;;;;;;;;5016941;28;20026;-77
2023/12/05 03:19:29;;;;;;;12.15;6.00;;;;;;;;;;5027911;28;20120;-76
2023/12/05 03:21:54;;;;;;;10.73;6.10;;;;;;;;;;5029988;28;20038;-75
2023/12/05 03:24:20;;;;;;;6.82;5.05;;;;;;;;;;5021371;28;20034;-76
2023/12/05 03:26:46;;;;;;;6.85;5.00;;;;;;;;;;5027554;28;20143;-76
2023/12/05 03:29:12;;;;;;;6.38;3.45;;;;;;;;;;5016989;28;20539;-77
2023/12/05 03:31:39;;;;;;;7.45;5.55;;;;;;;;;;5017956;28;20038;-75
2023/12/05 03:34:04;;;;;;;7.20;5.60;;;;;;;;;;5017112;28;20111;-76
2023/12/05 03:36:30;;;;;;;6.28;4.68;;;;;;;;;;5019259;28;20508;-76
2023/12/05 03:38:55;;;;;;;5.13;3.83;;;;;;;;;;5017942;28;20349;-76
2023/12/05 03:41:21;;;;;;;5.93;4.35;;;;;;;;;;5013913;28;20038;-75
2023/12/05 03:43:47;;;;;;;6.22;4.63;;;;;;;;;;5021170;28;20033;-76
2023/12/05 03:46:12;;;;;;;6.50;4.30;;;;;;;;;;5029353;28;20509;-76
2023/12/05 03:48:37;;;;;;;8.13;5.78;;;;;;;;;;5024895;28;20147;-76
2023/12/05 03:51:03;;;;;;;5.45;4.13;;;;;;;;;;5022108;28;20029;-76
2023/12/05 03:53:28;;;;;;;7.28;5.65;;;;;;;;;;5023980;28;20501;-77
2023/12/05 03:55:54;;;;;;;7.03;4.82;;;;;;;;;;5017840;28;20390;-77
2023/12/05 03:58:19;;;;;;;8.55;5.25;;;;;;;;;;5010432;28;20037;-78
2023/12/05 04:00:44;;;;;;;5.78;4.35;;;;;;;;;;5013274;28;20040;-76
2023/12/05 04:03:10;;;;;;;7.15;5.80;;;;;;;;;;5021584;28;20496;-75
2023/12/05 04:05:35;;;;;;;4.70;3.83;;;;;;;;;;5009854;28;20436;-78
2023/12/05 04:08:01;;;;;;;7.43;4.05;;;;;;;;;;4999345;28;20061;-77
2023/12/05 04:10:26;;;;;;;7.07;5.03;;;;;;;;;;4996372;28;20046;-77
2023/12/05 04:12:51;;;;;;;7.90;5.88;;;;;;;;;;5025447;28;20037;-76
2023/12/05 04:15:16;;;;;;;6.03;4.63;;;;;;;;;;5025507;28;20033;-77
2023/12/05 04:17:42;;;;;;;6.85;5.22;;;;;;;;;;5027046;28;20021;-76
2023/12/05 04:20:10;;;;;;;4.88;3.63;;;;;;;;;;5017878;28;20103;-77
2023/12/05 04:22:36;;;;;;;7.13;4.95;;;;;;;;;;5024781;28;20026;-76
2023/12/05 04:25:01;;;;;;;7.50;3.70;;;;;;;;;;5018202;28;20091;-77
2023/12/05 04:27:26;;;;;;;35.92;5.32;;;;;;;;;;5024206;28;20141;-76
2023/12/05 04:29:52;;;;;;;4.07;3.60;;;;;;;;;;5031334;28;20045;-76
2023/12/05 04:32:17;;;;;;;5.28;4.00;;;;;;;;;;5023975;28;20044;-78
2023/12/05 04:34:44;;;;;;;4.82;4.18;;;;;;;;;;5031557;28;20030;-77
2023/12/05 04:37:09;;;;;;;4.40;3.75;;;;;;;;;;5017102;28;20030;-77
2023/12/05 04:39:35;;;;;;;4.55;2.97;;;;;;;;;;5025078;28;20449;-75
2023/12/05 04:42:00;;;;;;;4.45;3.30;;;;;;;;;;5030246;28;20056;-77
2023/12/05 04:44:27;;;;;;;5.10;3.47;;;;;;;;;;5017929;28;20037;-78
2023/12/05 04:46:53;;;;;;;5.25;3.40;;;;;;;;;;5035012;28;20104;-77
2023/12/05 04:49:19;;;;;;;4.32;3.30;;;;;;;;;;5019674;28;20034;-77
2023/12/05 04:51:44;;;;;;;4.38;3.25;;;;;;;;;;5023879;28;20502;-77
2023/12/05 04:54:10;;;;;;;3.45;2.70;;;;;;;;;;5023866;28;20022;-77
2023/12/05 04:56:35;;;;;;;3.17;2.78;;;;;;;;;;5026587;28;20021;-76
2023/12/05 04:59:00;;;;;;;2.92;2.33;;;;;;;;;;5009531;28;20030;-77
2023/12/05 05:01:26;;;;;;;2.85;2.33;;;;;;;;;;5005077;28;20040;-77
2023/12/05 05:03:51;;;;;;;2.80;2.47;;;;;;;;;;5035792;28;20521;-76
2023/12/05 05:06:16;;;;;;;3.20;2.40;;;;;;;;;;5034835;28;20022;-77
2023/12/05 05:08:42;;;;;;;3.72;2.90;;;;;;;;;;5028743;28;20018;-76
2023/12/05 05:11:07;;;;;;;3.58;2.90;;;;;;;;;;5020313;28;20088;-76
2023/12/05 05:13:33;;;;;;;6.40;2.50;;;;;;;;;;5034931;28;20405;-77
2023/12/05 05:15:58;;;;;;;3.33;2.67;;;;;;;;;;5022135;28;20034;-76
2023/12/05 05:18:23;;;;;;;5.05;2.65;;;;;;;;;;5014457;28;20037;-77
2023/12/05 05:20:48;;;;;;;4.38;2.15;;;;;;;;;;5036113;28;20425;-77
2023/12/05 05:23:14;;;;;;;2.42;2.22;;;;;;;;;;5026577;28;20129;-77
2023/12/05 05:25:39;;;;;;;2.42;1.95;;;;;;;;;;5017131;28;20025;-76
2023/12/05 05:28:04;;;;;;;4.82;3.25;;;;;;;;;;5017705;28;20141;-77
2023/12/05 05:30:29;;;;;;;8.57;2.55;;;;;;;;;;5012920;28;20072;-76
2023/12/05 05:32:55;;;;;;;19.92;3.67;;;;;;;;;;5013238;28;20439;-76
2023/12/05 05:35:20;;;;;;;1.80;1.70;;;;;;;;;;5020457;28;20032;-76
2023/12/05 05:37:45;;;;;;;5.60;2.25;;;;;;;;;;5013358;28;20044;-77
2023/12/05 05:40:11;;;;;;;2.30;2.10;;;;;;;;;;5025893;28;20410;-77
2023/12/05 05:42:36;;;;;;;2.60;2.17;;;;;;;;;;5031513;28;20083;-77
2023/12/05 05:45:02;;;;;;;4.43;2.40;;;;;;;;;;5031991;28;20052;-76
2023/12/05 05:47:28;;;;;;;3.45;3.15;;;;;;;;;;5023309;28;20042;-76
2023/12/05 05:49:54;;;;;;;3.90;3.05;;;;;;;;;;5020439;28;20040;-76
2023/12/05 05:52:19;;;;;;;2.95;2.38;;;;;;;;;;5016218;28;20034;-77
2023/12/05 05:54:44;;;;;;;3.08;2.78;;;;;;;;;;5020207;28;20036;-76
2023/12/05 05:57:10;;;;;;;3.40;2.50;;;;;;;;;;5011597;28;20026;-76
2023/12/05 05:59:35;;;;;;;28.45;3.75;;;;;;;;;;5030337;28;20061;-77
2023/12/05 06:02:00;;;;;;;6.43;3.38;;;;;;;;;;5018373;28;20057;-76
2023/12/05 06:04:26;;;;;;;4.72;3.03;;;;;;;;;;5021157;28;20034;-77
2023/12/05 06:06:51;;;;;;;3.40;2.75;;;;;;;;;;4999194;28;20099;-78
2023/12/05 06:09:16;;;;;;;34.72;4.28;;;;;;;;;;5018214;28;20034;-77
2023/12/05 06:11:42;;;;;;;57.28;5.57;;;;;;;;;;5021752;28;20036;-76
2023/12/05 06:14:07;;;;;;;9.27;3.53;;;;;;;;;;5021780;28;20132;-78
2023/12/05 06:16:33;;;;;;;6.55;3.90;;;;;;;;;;5026634;28;20164;-77
2023/12/05 06:18:58;;;;;;;8.43;3.70;;;;;;;;;;5015422;28;20045;-76
2023/12/05 06:21:23;;;;;;;5.40;3.70;;;;;;;;;;5017975;28;20041;-76
2023/12/05 06:23:49;;;;;;;7.05;3.13;;;;;;;;;;5022124;28;20028;-76
2023/12/05 06:26:14;;;;;;;7.38;3.40;;;;;;;;;;5017378;28;20116;-76
2023/12/05 06:28:39;;;;;;;325.02;18.40;;;;;;;;;;5017302;28;20524;-76
2023/12/05 06:31:05;;;;;;;3.47;2.97;;;;;;;;;;5019318;28;20053;-76
2023/12/05 06:33:30;;;;;;;35.90;4.50;;;;;;;;;;5018690;28;20049;-76
2023/12/05 06:35:55;;;;;;;15.55;4.00;;;;;;;;;;5008351;28;20018;-77
2023/12/05 06:38:21;;;;;;;5.97;4.03;;;;;;;;;;5012356;28;20037;-75
2023/12/05 06:40:46;;;;;;;5.05;4.15;;;;;;;;;;5001838;28;20030;-77
2023/12/05 06:43:11;;;;;;;6.15;4.63;;;;;;;;;;5011946;28;20511;-77
2023/12/05 06:45:37;;;;;;;3.10;2.63;;;;;;;;;;5024235;28;20037;-77
2023/12/05 06:48:02;;;;;;;4.07;2.92;;;;;;;;;;5026569;28;20033;-76
2023/12/05 06:50:27;;;;;;;2.88;2.58;;;;;;;;;;5028210;28;20041;-78
2023/12/05 06:52:57;;;;;;;5.60;3.10;;;;;;;;;;5023546;28;20026;-76
2023/12/05 06:55:23;;;;;;;2.08;1.98;;;;;;;;;;5015824;28;20033;-77
2023/12/05 06:57:48;;;;;;;3.88;2.25;;;;;;;;;;5014052;28;20117;-76
2023/12/05 07:00:14;;;;;;;4.50;2.33;;;;;;;;;;5024112;28;20512;-75
2023/12/05 07:02:39;;;;;;;2.85;2.40;;;;;;;;;;5002963;28;20084;-76
2023/12/05 07:05:05;;;;;;;2.40;1.75;;;;;;;;;;5026360;28;20030;-76
2023/12/05 07:07:30;;;;;;;2.25;1.75;;;;;;;;;;5017568;28;20397;-76
2023/12/05 07:09:55;;;;;;;2.65;2.13;;;;;;;;;;5020117;28;20040;-76
2023/12/05 07:12:21;;;;;;;2.63;1.88;;;;;;;;;;5018582;28;20033;-76
2023/12/05 07:14:46;;;;;;;1.70;1.60;;;;;;;;;;5014365;28;20063;-76
2023/12/05 07:17:11;;;;;;;2.28;2.08;;;;;;;;;;5021184;28;20034;-76
2023/12/05 07:19:37;;;;;;;3.20;1.98;;;;;;;;;;5024866;28;20056;-76
2023/12/05 07:22:02;;;;;;;1.90;1.80;;;;;;;;;;5019257;28;20080;-76
2023/12/05 07:24:27;;;;;;;2.20;2.00;;;;;;;;;;5026736;28;20044;-76
2023/12/05 07:26:53;;;;;;;6.40;2.00;;;;;;;;;;5026553;28;21585;-75
2023/12/05 07:29:19;;;;;;;2.33;2.08;;;;;;;;;;5023156;28;20072;-77
2023/12/05 07:31:44;;;;;;;6.65;2.38;;;;;;;;;;5020283;28;20041;-75
2023/12/05 07:34:09;;;;;;;15.82;2.55;;;;;;;;;;5008734;28;20040;-77
2023/12/05 07:36:39;;;;;;;3.30;2.00;;;;;;;;;;5019062;28;20049;-75
2023/12/05 07:39:04;;;;;;;5.07;2.20;;;;;;;;;;5014625;28;20111;-77
2023/12/05 07:41:29;;;;;;;3.13;1.90;;;;;;;;;;5008181;28;20481;-75
2023/12/05 07:43:54;;;;;;;2.28;1.90;;;;;;;;;;5026733;28;20037;-77
2023/12/05 07:46:20;;;;;;;2.10;1.50;;;;;;;;;;5025467;28;20121;-76
2023/12/05 07:48:45;;;;;;;1.95;1.83;;;;;;;;;;5023992;28;20049;-76
2023/12/05 07:51:16;;;;;;;2.40;1.90;;;;;;;;;;5019971;28;20088;-78
2023/12/05 07:53:41;;;;;;;3.30;2.00;;;;;;;;;;5020365;28;20448;-76
2023/12/05 07:56:07;;;;;;;2.13;2.00;;;;;;;;;;5019625;28;20117;-77
2023/12/05 07:58:32;;;;;;;1.90;1.67;;;;;;;;;;5024101;28;20033;-77
2023/12/05 08:00:57;;;;;;;2.45;1.80;;;;;;;;;;5023891;28;20088;-76
2023/12/05 08:03:23;;;;;;;2.85;1.98;;;;;;;;;;5019200;28;20060;-77
2023/12/05 08:05:48;;;;;;;4.43;1.88;;;;;;;;;;5017654;28;20029;-77
2023/12/05 08:08:13;;;;;;;2.92;2.10;;;;;;;;;;5019315;28;20114;-77
2023/12/05 08:10:39;;;;;;;1.65;1.52;;;;;;;;;;5025514;28;20057;-76
2023/12/05 08:13:04;;;;;;;2.33;1.65;;;;;;;;;;5026404;28;20060;-77
2023/12/05 08:15:29;;;;;;;2.78;1.90;;;;;;;;;;5023832;28;20029;-75
2023/12/05 08:17:54;;;;;;;2.00;1.80;;;;;;;;;;5018503;28;20379;-75
2023/12/05 08:20:20;;;;;;;1.75;1.52;;;;;;;;;;5018466;28;20522;-76
2023/12/05 08:22:45;;;;;;;2.75;1.73;;;;;;;;;;5017720;28;20061;-76
2023/12/05 08:25:11;;;;;;;1.98;1.77;;;;;;;;;;5026616;28;20117;-77
2023/12/05 08:27:37;;;;;;;1.77;1.67;;;;;;;;;;5026847;28;20513;-76
2023/12/05 08:30:02;;;;;;;3.40;1.83;;;;;;;;;;5029522;28;20168;-75
2023/12/05 08:32:28;;;;;;;1.55;1.45;;;;;;;;;;5027100;28;20501;-75
2023/12/05 08:34:53;;;;;;;1.77;1.67;;;;;;;;;;5015140;28;20034;-76
2023/12/05 08:37:18;;;;;;;2.50;2.03;;;;;;;;;;5021862;28;20044;-76
2023/12/05 08:39:44;;;;;;;4.13;1.80;;;;;;;;;;5024084;28;20144;-76
2023/12/05 08:42:09;;;;;;;3.15;2.13;;;;;;;;;;5022711;28;20535;-75
2023/12/05 08:44:34;;;;;;;1.65;1.55;;;;;;;;;;5024489;28;20025;-76
2023/12/05 08:46:59;;;;;;;1.75;1.65;;;;;;;;;;5016733;28;20038;-77
2023/12/05 08:49:25;;;;;;;4.28;2.05;;;;;;;;;;5016873;28;20045;-77
2023/12/05 08:51:50;;;;;;;2.30;1.80;;;;;;;;;;5019961;28;20107;-77
2023/12/05 08:54:15;;;;;;;2.30;2.10;;;;;;;;;;5015973;28;20018;-75
2023/12/05 08:56:41;;;;;;;2.65;1.88;;;;;;;;;;5009197;28;20572;-77
2023/12/05 08:59:06;;;;;;;1.83;1.73;;;;;;;;;;5021839;28;20034;-77
2023/12/05 09:01:31;;;;;;;2.05;1.67;;;;;;;;;;5023171;28;20026;-77
2023/12/05 09:03:56;;;;;;;1.88;1.77;;;;;;;;;;5021532;28;20524;-77
2023/12/05 09:06:22;;;;;;;2.47;1.70;;;;;;;;;;5025536;28;21749;-76
2023/12/05 09:08:47;;;;;;;2.10;1.90;;;;;;;;;;5016370;28;20121;-76
2023/12/05 09:11:12;;;;;;;3.70;1.92;;;;;;;;;;5032300;28;20406;-76
2023/12/05 09:13:38;;;;;;;2.53;1.98;;;;;;;;;;5010741;28;20083;-76
2023/12/05 09:16:04;;;;;;;2.30;1.80;;;;;;;;;;5025826;28;20037;-76
2023/12/05 09:18:29;;;;;;;4.50;2.00;;;;;;;;;;5032059;28;20048;-77
2023/12/05 09:20:54;;;;;;;3.22;2.40;;;;;;;;;;5019622;28;20029;-78
2023/12/05 09:23:20;;;;;;;2.42;1.88;;;;;;;;;;5026926;28;20070;-75
2023/12/05 09:25:45;;;;;;;2.42;2.00;;;;;;;;;;5020287;28;20429;-77
2023/12/05 09:28:10;;;;;;;1.92;1.70;;;;;;;;;;5018083;28;20038;-77
2023/12/05 09:30:36;;;;;;;2.25;2.05;;;;;;;;;;5031292;28;20033;-77
2023/12/05 09:33:02;;;;;;;2.15;1.95;;;;;;;;;;5021650;28;20025;-77
2023/12/05 09:35:27;;;;;;;5.07;1.70;;;;;;;;;;5007178;28;20041;-76
2023/12/05 09:37:53;;;;;;;1.63;1.50;;;;;;;;;;5019137;28;20080;-77
2023/12/05 09:40:19;;;;;;;2.08;1.83;;;;;;;;;;5031991;28;20034;-76
2023/12/05 09:42:47;;;;;;;1.48;1.38;;;;;;;;;;5023792;28;20497;-75
2023/12/05 09:45:15;;;;;;;2.03;1.50;;;;;;;;;;5016841;28;20018;-76
2023/12/05 09:47:43;;;;;;;1.42;1.08;;;;;;;;;;5014103;28;20499;-78
2023/12/05 09:50:09;;;;;;;1.30;1.20;;;;;;;;;;5021787;28;20048;-77
2023/12/05 09:52:35;;;;;;;3.15;1.30;;;;;;;;;;5029976;28;20537;-77
2023/12/05 09:55:01;;;;;;;4.88;1.55;;;;;;;;;;5028766;28;20072;-78
2023/12/05 09:57:28;;;;;;;5.05;1.27;;;;;;;;;;5029774;28;20045;-77
2023/12/05 09:59:53;;;;;;;3.90;1.35;;;;;;;;;;5025287;28;20580;-76
2023/12/05 10:02:20;;;;;;;3.05;1.10;;;;;;;;;;5025665;28;20030;-76
2023/12/05 10:04:49;;;;;;;1.40;1.27;;;;;;;;;;5022717;28;20099;-76
2023/12/05 10:07:15;;;;;;;1.95;1.33;;;;;;;;;;5021725;28;20037;-76
2023/12/05 10:09:42;;;;;;;1.00;1.00;;;;;;;;;;5022178;28;20444;-76
2023/12/05 10:12:11;;;;;;;1.63;1.15;;;;;;;;;;5027158;28;20065;-76
2023/12/05 10:14:37;;;;;;;6.43;1.50;;;;;;;;;;5024326;28;20076;-76
2023/12/05 10:17:04;;;;;;;0.90;0.90;;;;;;;;;;5025764;28;20033;-77
2023/12/05 10:19:30;;;;;;;1.92;1.35;;;;;;;;;;5015851;28;20350;-78
2023/12/05 10:21:57;;;;;;;1.20;0.93;;;;;;;;;;5027454;28;20039;-77
2023/12/05 10:24:22;;;;;;;1.98;1.45;;;;;;;;;;5021401;28;20048;-76
2023/12/05 10:26:47;;;;;;;1.45;1.35;;;;;;;;;;5023394;28;20274;-76
2023/12/05 10:29:16;;;;;;;1.55;1.25;;;;;;;;;;5019119;28;20516;-76
2023/12/05 10:31:42;;;;;;;1.00;1.00;;;;;;;;;;5018845;28;20037;-76
2023/12/05 10:34:08;;;;;;;1.35;1.13;;;;;;;;;;5021816;28;20458;-77
2023/12/05 10:36:34;;;;;;;1.55;0.95;;;;;;;;;;5018758;28;20056;-77
2023/12/05 10:38:59;;;;;;;1.30;0.90;;;;;;;;;;5015419;28;20498;-76
2023/12/05 10:41:25;;;;;;;0.77;0.77;;;;;;;;;;5019429;28;20030;-76
2023/12/05 10:43:55;;;;;;;0.80;0.80;;;;;;;;;;5022183;28;20069;-77
2023/12/05 10:46:21;;;;;;;11.05;1.13;;;;;;;;;;5021835;28;20379;-78
2023/12/05 10:48:47;;;;;;;0.82;0.80;;;;;;;;;;5014984;28;20356;-77
2023/12/05 10:51:13;;;;;;;0.68;0.68;;;;;;;;;;5023203;28;20018;-77
2023/12/05 10:53:39;;;;;;;1.77;1.05;;;;;;;;;;5015579;28;20024;-76
2023/12/05 10:56:16;;;;;;;0.77;0.77;;;;;;;;;;5015125;28;20494;-77
2023/12/05 10:58:42;;;;;;;0.90;0.82;;;;;;;;;;5019342;28;20030;-77
2023/12/05 11:01:12;;;;;;;1.98;0.80;;;;;;;;;;5016171;28;20038;-77
2023/12/05 11:03:40;;;;;;;1.20;0.85;;;;;;;;;;5021132;28;20022;-76
2023/12/05 11:06:07;;;;;;;1.13;0.90;;;;;;;;;;5020391;28;20029;-77
2023/12/05 11:08:33;;;;;;;0.70;0.70;;;;;;;;;;5023650;28;20100;-78
2023/12/05 11:11:00;;;;;;;1.13;0.95;;;;;;;;;;5026339;28;20124;-75
2023/12/05 11:13:26;;;;;;;1.08;1.00;;;;;;;;;;5026651;28;20121;-77
2023/12/05 11:15:55;;;;;;;0.70;0.70;;;;;;;;;;5022260;28;20124;-76
2023/12/05 11:18:31;;;;;;;0.80;0.80;;;;;;;;;;5021819;28;20018;-76
2023/12/05 11:21:17;;;;;;;0.68;0.68;;;;;;;;;;5024226;28;20394;-78
2023/12/05 11:23:57;;;;;;;2.08;1.00;;;;;;;;;;5018194;28;20030;-77
2023/12/05 11:27:00;;;;;;;0.80;0.80;;;;;;;;;;5021520;28;20041;-78
2023/12/05 11:29:46;;;;;;;0.70;0.70;;;;;;;;;;5010393;28;20155;-77
2023/12/05 11:32:30;;;;;;;0.70;0.70;;;;;;;;;;5017501;28;20048;-77
2023/12/05 11:35:04;;;;;;;0.75;0.73;;;;;;;;;;5018802;28;20042;-77
2023/12/05 11:37:45;;;;;;;;;;;;;;;;;;5022374;28;20042;-77
2023/12/05 11:40:10;;;;;;;0.77;0.73;;;;;;;;;;5018654;28;20383;-78
2023/12/05 11:42:36;;;;;;;0.73;0.73;;;;;;;;;;5011485;28;20030;-76
2023/12/05 11:45:20;;;;;;;1.23;0.90;;;;;;;;;;5018439;28;20025;-76
2023/12/05 11:47:46;;;;;;;1.02;0.90;;;;;;;;;;5021755;28;20425;-76
2023/12/05 11:50:14;;;;;;;1.40;0.90;;;;;;;;;;5029617;28;20034;-78
2023/12/05 11:52:40;;;;;;;3.70;0.70;;;;;;;;;;5026671;28;20045;-77
2023/12/05 11:55:08;;;;;;;0.65;0.65;;;;;;;;;;5026673;28;20038;-75
2023/12/05 11:57:34;;;;;;;1.45;0.70;;;;;;;;;;5031693;28;20137;-77
2023/12/05 11:59:59;;;;;;;0.90;0.90;;;;;;;;;;5035868;28;20495;-77
2023/12/05 12:02:30;;;;;;;0.60;0.60;;;;;;;;;;5038182;28;20037;-76
2023/12/05 12:05:05;;;;;;;0.60;0.60;;;;;;;;;;5027580;28;20044;-75
2023/12/05 12:07:31;;;;;;;0.70;0.70;;;;;;;;;;5030303;28;20033;-76
2023/12/05 12:09:56;;;;;;;0.73;0.73;;;;;;;;;;5031379;28;20064;-77
2023/12/05 12:12:21;;;;;;;0.75;0.75;;;;;;;;;;5033834;28;20026;-77
2023/12/05 12:14:47;;;;;;;0.70;0.70;;;;;;;;;;5028022;28;20033;-77
2023/12/05 12:17:13;;;;;;;0.55;0.55;;;;;;;;;;5030708;28;20030;-78
2023/12/05 12:19:39;;;;;;;0.75;0.75;;;;;;;;;;5022864;28;20037;-76
2023/12/05 12:22:09;;;;;;;0.60;0.60;;;;;;;;;;5031406;28;20048;-76
2023/12/05 12:24:36;;;;;;;1.02;0.80;;;;;;;;;;5021855;28;20033;-77
2023/12/05 12:27:01;;;;;;;0.88;0.88;;;;;;;;;;5013835;28;20085;-78
2023/12/05 12:29:27;;;;;;;7.82;5.00;;;;;;;;;;5015339;28;20038;-77
2023/12/05 12:32:06;;;;;;;2.42;1.80;;;;;;;;;;5050891;23;20052;-75
2023/12/05 12:34:31;;;;;;;2.47;2.17;;;;;;;;;;5031287;28;20053;-76
2023/12/05 12:36:58;;;;;;;2.17;1.75;;;;;;;;;;5049134;28;20043;-76
2023/12/05 12:39:25;;;;;;;1.17;0.82;;;;;;;;;;5041108;28;20037;-75
2023/12/05 12:41:51;;;;;;;0.80;0.80;;;;;;;;;;5041590;28;20033;-76
2023/12/05 12:44:17;;;;;;;1.13;0.68;;;;;;;;;;5024361;28;20092;-75
2023/12/05 12:46:43;;;;;;;2.03;0.80;;;;;;;;;;5020540;28;20045;-76
2023/12/05 12:49:09;;;;;;;0.80;0.80;;;;;;;;;;5026997;28;20041;-76
2023/12/05 12:51:35;;;;;;;0.85;0.80;;;;;;;;;;5016553;28;20397;-75
2023/12/05 12:54:01;;;;;;;0.70;0.70;;;;;;;;;;5027715;28;20037;-76
2023/12/05 12:56:32;;;;;;;0.60;0.60;;;;;;;;;;5035807;28;20080;-75
2023/12/05 12:59:02;;;;;;;0.70;0.70;;;;;;;;;;5037350;28;20128;-75
2023/12/05 13:01:29;;;;;;;0.80;0.80;;;;;;;;;;5031974;28;20394;-75
2023/12/05 13:03:55;;;;;;;1.58;0.90;;;;;;;;;;5017667;28;20026;-76
2023/12/05 13:06:21;;;;;;;2.08;0.93;;;;;;;;;;5029621;28;20393;-76
2023/12/05 13:08:47;;;;;;;8.65;1.55;;;;;;;;;;5033157;28;20032;-75
2023/12/05 13:11:12;;;;;;;1.00;0.82;;;;;;;;;;5037330;28;20041;-76
2023/12/05 13:13:38;;;;;;;1.63;1.00;;;;;;;;;;5014023;28;20526;-76
2023/12/05 13:16:06;;;;;;;2.65;1.40;;;;;;;;;;5025141;28;20041;-76
2023/12/05 13:18:45;;;;;;;1.25;1.00;;;;;;;;;;5032036;28;20475;-76
2023/12/05 13:21:12;;;;;;;1.15;0.98;;;;;;;;;;5034192;28;20056;-76
2023/12/05 13:23:37;;;;;;;2.85;1.08;;;;;;;;;;5019994;28;20025;-76
2023/12/05 13:26:03;;;;;;;1.00;0.98;;;;;;;;;;5031908;28;20462;-76
2023/12/05 13:28:29;;;;;;;0.90;0.90;;;;;;;;;;5024317;28;20055;-76
2023/12/05 13:30:54;;;;;;;0.90;0.90;;;;;;;;;;5011498;28;20038;-76
2023/12/05 13:33:19;;;;;;;0.90;0.90;;;;;;;;;;5021908;28;20416;-76
2023/12/05 13:35:45;;;;;;;1.58;1.40;;;;;;;;;;5036404;28;20039;-75
2023/12/05 13:38:11;;;;;;;0.82;0.82;;;;;;;;;;5023038;28;20120;-75
2023/12/05 13:40:36;;;;;;;0.90;0.90;;;;;;;;;;5030328;28;20550;-76
2023/12/05 13:43:02;;;;;;;1.00;1.00;;;;;;;;;;5033719;28;20045;-76
2023/12/05 13:45:27;;;;;;;1.40;1.30;;;;;;;;;;5045026;28;20069;-76
2023/12/05 13:47:52;;;;;;;1.40;1.30;;;;;;;;;;5017565;28;20037;-75
2023/12/05 13:50:19;;;;;;;1.63;1.38;;;;;;;;;;5034033;28;20083;-76
2023/12/05 13:52:44;;;;;;;1.02;1.00;;;;;;;;;;5027204;28;20042;-76
2023/12/05 13:55:09;;;;;;;1.35;1.10;;;;;;;;;;5026646;28;20041;-76
2023/12/05 13:57:35;;;;;;;12.45;1.40;;;;;;;;;;5024603;28;20497;-76
2023/12/05 14:00:00;;;;;;;2.45;1.08;;;;;;;;;;5043419;28;20116;-76
2023/12/05 14:02:25;;;;;;;2.80;1.23;;;;;;;;;;5029854;28;20442;-76
2023/12/05 14:04:50;;;;;;;0.98;0.98;;;;;;;;;;5019819;28;20080;-76
2023/12/05 14:07:16;;;;;;;1.08;1.05;;;;;;;;;;5036408;28;20343;-76
2023/12/05 14:09:42;;;;;;;0.90;0.90;;;;;;;;;;5014504;28;20037;-76
2023/12/05 14:12:11;;;;;;;0.82;0.82;;;;;;;;;;5022696;28;20028;-76
2023/12/05 14:14:39;;;;;;;0.80;0.80;;;;;;;;;;5033994;28;20560;-76
2023/12/05 14:17:04;;;;;;;1.05;1.00;;;;;;;;;;5018042;28;20045;-76
2023/12/05 14:19:31;;;;;;;1.30;1.20;;;;;;;;;;5031612;28;20037;-76
2023/12/05 14:21:57;;;;;;;4.53;1.10;;;;;;;;;;5038504;28;20505;-76
2023/12/05 14:24:22;;;;;;;1.52;1.20;;;;;;;;;;5031148;28;20109;-76
2023/12/05 14:26:47;;;;;;;1.20;1.10;;;;;;;;;;5027472;28;20488;-76
2023/12/05 14:29:12;;;;;;;5.47;1.40;;;;;;;;;;5050119;28;20029;-76
2023/12/05 14:31:38;;;;;;;1.08;1.02;;;;;;;;;;5029059;28;20048;-76
2023/12/05 14:34:03;;;;;;;1.17;0.90;;;;;;;;;;5037475;28;20044;-76
2023/12/05 14:36:28;;;;;;;2.60;1.02;;;;;;;;;;5015374;28;20034;-76